Time;durP1;ratioP1;P1;durP2;ratioP2;P2;SDS_P1;SDS_P2;PMS_P1;PMS_P2;Temp;Humidity;BMP_temperature;BMP_pressure;BME280_temperature;BME280_humidity;BME280_pressure;Samples;Min_cycle;Max_cycle;Signal;HPM_P1;HPM_P2
2023/09/16 00:00:38;;;;;;;9.03;8.13;;;14.00;99.90;;;;;;5053242;28;20448;-59
2023/09/16 00:03:05;;;;;;;13.63;9.10;;;14.00;99.90;;;;;;5052378;28;20484;-60
2023/09/16 00:05:32;;;;;;;9.77;7.93;;;13.90;99.90;;;;;;5052998;28;20446;-59
2023/09/16 00:07:58;;;;;;;8.57;7.67;;;13.90;99.90;;;;;;5052710;28;20496;-60
2023/09/16 00:10:25;;;;;;;11.53;9.00;;;13.90;99.90;;;;;;5053121;28;20446;-59
2023/09/16 00:12:53;;;;;;;13.57;11.10;;;13.90;99.90;;;;;;5052921;28;20459;-59
2023/09/16 00:15:22;;;;;;;9.47;8.27;;;13.90;99.90;;;;;;5052907;28;20450;-59
2023/09/16 00:17:48;;;;;;;11.80;8.50;;;13.90;99.90;;;;;;5053059;28;20542;-59
2023/09/16 00:20:15;;;;;;;10.40;8.37;;;13.90;99.90;;;;;;5053099;28;20818;-59
2023/09/16 00:22:42;;;;;;;10.80;9.47;;;13.90;99.90;;;;;;5052937;28;20472;-60
2023/09/16 00:25:10;;;;;;;9.90;8.43;;;13.80;99.90;;;;;;5053220;28;20451;-59
2023/09/16 00:27:39;;;;;;;11.30;9.43;;;13.80;99.90;;;;;;5054979;28;20446;-59
2023/09/16 00:30:08;;;;;;;11.23;8.90;;;13.80;99.90;;;;;;5057539;28;20537;-59
2023/09/16 00:32:35;;;;;;;10.03;9.03;;;13.80;99.90;;;;;;5057408;28;20468;-60
2023/09/16 00:35:04;;;;;;;11.30;8.70;;;13.80;99.90;;;;;;5057406;28;20450;-60
2023/09/16 00:37:31;;;;;;;14.40;7.60;;;13.70;99.90;;;;;;5057447;28;20890;-60
2023/09/16 00:39:58;;;;;;;9.70;8.10;;;13.70;99.90;;;;;;5056868;28;20486;-59
2023/09/16 00:42:25;;;;;;;11.10;8.90;;;13.70;99.90;;;;;;5056991;28;20465;-60
2023/09/16 00:44:51;;;;;;;15.47;9.00;;;13.60;99.90;;;;;;5057813;28;20446;-60
2023/09/16 00:47:20;;;;;;;11.00;8.10;;;13.60;99.90;;;;;;5057547;28;20452;-59
2023/09/16 00:49:47;;;;;;;11.23;8.40;;;13.60;99.90;;;;;;5057677;28;20453;-59
2023/09/16 00:52:13;;;;;;;11.63;9.50;;;13.60;99.90;;;;;;5057743;28;20466;-60
2023/09/16 00:54:40;;;;;;;10.50;9.40;;;13.60;99.90;;;;;;5058604;28;20453;-59
2023/09/16 00:57:11;;;;;;;12.70;8.03;;;13.60;99.90;;;;;;5056413;28;20481;-60
2023/09/16 00:59:39;;;;;;;11.03;8.37;;;13.60;99.90;;;;;;5056488;28;20807;-60
2023/09/16 01:02:09;;;;;;;15.90;8.23;;;13.60;99.90;;;;;;5056060;28;20488;-60
2023/09/16 01:04:39;;;;;;;10.13;9.00;;;13.50;99.90;;;;;;5056489;28;20425;-60
2023/09/16 01:07:06;;;;;;;10.60;8.93;;;13.50;99.90;;;;;;5056294;28;20439;-60
2023/09/16 01:09:33;;;;;;;10.80;9.30;;;13.50;99.90;;;;;;5056221;28;20495;-60
2023/09/16 01:11:59;;;;;;;11.43;8.77;;;13.50;99.90;;;;;;5055708;28;20974;-60
2023/09/16 01:14:27;;;;;;;11.40;9.70;;;13.50;99.90;;;;;;5056076;28;20821;-60
2023/09/16 01:16:58;;;;;;;10.57;9.17;;;13.50;99.90;;;;;;5055924;28;20485;-60
2023/09/16 01:19:33;;;;;;;10.30;9.20;;;13.50;99.90;;;;;;5055733;28;20917;-60
2023/09/16 01:22:03;;;;;;;10.10;8.37;;;13.50;99.90;;;;;;5055930;28;20468;-60
2023/09/16 01:24:30;;;;;;;13.33;9.40;;;13.40;99.90;;;;;;5055859;28;20496;-60
2023/09/16 01:26:58;;;;;;;11.07;8.93;;;13.40;99.90;;;;;;5055871;28;20441;-60
2023/09/16 01:29:28;;;;;;;10.47;8.97;;;13.40;99.90;;;;;;5055864;28;20444;-60
2023/09/16 01:31:57;;;;;;;11.97;8.90;;;13.40;99.90;;;;;;5055354;28;20465;-60
2023/09/16 01:34:32;;;;;;;10.37;9.27;;;13.40;99.90;;;;;;5055829;28;20818;-60
2023/09/16 01:37:02;;;;;;;10.43;9.07;;;13.40;99.90;;;;;;5055257;28;20848;-60
2023/09/16 01:39:30;;;;;;;14.27;9.97;;;13.40;99.90;;;;;;5055020;28;20815;-60
2023/09/16 01:41:59;;;;;;;10.70;9.40;;;13.40;99.90;;;;;;5055941;28;20838;-60
2023/09/16 01:44:26;;;;;;;10.83;9.07;;;13.40;99.90;;;;;;5055799;28;20443;-60
2023/09/16 01:46:55;;;;;;;11.37;9.40;;;13.40;99.90;;;;;;5055360;28;20940;-60
2023/09/16 01:49:22;;;;;;;11.93;10.53;;;13.40;99.90;;;;;;5055888;28;20819;-60
2023/09/16 01:51:49;;;;;;;9.63;8.63;;;13.40;99.90;;;;;;5055746;28;20474;-60
2023/09/16 01:54:15;;;;;;;13.90;8.80;;;13.40;99.90;;;;;;5056326;28;20824;-60
2023/09/16 01:56:43;;;;;;;11.20;9.00;;;13.40;99.90;;;;;;5057152;28;20445;-59
2023/09/16 01:59:11;;;;;;;12.13;9.90;;;13.40;99.90;;;;;;5057636;28;20456;-59
2023/09/16 02:01:38;;;;;;;10.90;9.80;;;13.40;99.90;;;;;;5057314;28;20477;-59
2023/09/16 02:04:06;;;;;;;12.63;9.50;;;13.40;99.90;;;;;;5056787;28;20442;-59
2023/09/16 02:06:33;;;;;;;10.73;8.10;;;13.30;99.90;;;;;;5056060;28;20887;-59
2023/09/16 02:08:59;;;;;;;12.93;9.33;;;13.30;99.90;;;;;;5056037;28;20521;-59
2023/09/16 02:11:26;;;;;;;10.73;9.47;;;13.30;99.90;;;;;;5055238;28;20834;-59
2023/09/16 02:13:53;;;;;;;11.10;9.80;;;13.20;99.90;;;;;;5055312;28;20877;-58
2023/09/16 02:16:21;;;;;;;11.73;9.90;;;13.20;99.90;;;;;;5055222;28;20438;-59
2023/09/16 02:18:48;;;;;;;11.33;9.53;;;13.10;99.90;;;;;;5054935;28;21011;-59
2023/09/16 02:21:15;;;;;;;13.37;10.10;;;13.10;99.90;;;;;;5054861;28;20462;-59
2023/09/16 02:23:42;;;;;;;12.33;9.83;;;13.10;99.90;;;;;;5054932;28;20441;-60
2023/09/16 02:26:09;;;;;;;13.00;9.77;;;13.10;99.90;;;;;;5054905;28;20445;-59
2023/09/16 02:28:36;;;;;;;13.80;10.50;;;13.10;99.90;;;;;;5054842;28;20452;-60
2023/09/16 02:31:03;;;;;;;13.53;9.63;;;13.10;99.90;;;;;;5054709;28;20548;-59
2023/09/16 02:33:32;;;;;;;11.10;10.00;;;13.10;99.90;;;;;;5054778;28;20468;-58
2023/09/16 02:35:58;;;;;;;13.27;9.33;;;13.10;99.90;;;;;;5054613;28;20445;-59
2023/09/16 02:38:25;;;;;;;12.27;10.13;;;13.10;99.90;;;;;;5054517;28;20485;-59
2023/09/16 02:40:52;;;;;;;12.57;9.93;;;13.10;99.90;;;;;;5054482;28;20446;-60
2023/09/16 02:43:19;;;;;;;10.20;9.17;;;13.10;99.90;;;;;;5054548;28;20453;-59
2023/09/16 02:45:45;;;;;;;16.57;10.43;;;13.00;99.90;;;;;;5054769;28;20438;-59
2023/09/16 02:48:17;;;;;;;12.67;10.20;;;13.10;99.90;;;;;;5054630;28;20441;-60
2023/09/16 02:50:47;;;;;;;11.33;9.60;;;13.10;99.90;;;;;;5053349;28;20430;-60
2023/09/16 02:53:14;;;;;;;11.10;9.63;;;13.10;99.90;;;;;;5054086;28;20856;-60
2023/09/16 02:55:41;;;;;;;12.50;10.10;;;13.10;99.90;;;;;;5054208;28;20442;-60
2023/09/16 02:58:08;;;;;;;14.50;10.37;;;13.00;99.90;;;;;;5054148;28;20489;-60
2023/09/16 03:00:35;;;;;;;12.57;10.27;;;13.00;99.90;;;;;;5054060;28;20458;-60
2023/09/16 03:03:02;;;;;;;12.60;9.83;;;13.00;99.90;;;;;;5053698;28;20478;-60
2023/09/16 03:05:30;;;;;;;11.83;10.57;;;13.00;99.90;;;;;;5054119;28;20444;-60
2023/09/16 03:07:58;;;;;;;13.20;9.57;;;13.00;99.90;;;;;;5053944;28;20431;-60
2023/09/16 03:10:25;;;;;;;10.80;9.20;;;12.90;99.90;;;;;;5053856;28;20462;-60
2023/09/16 03:12:52;;;;;;;13.77;10.70;;;12.90;99.90;;;;;;5053869;28;20470;-59
2023/09/16 03:15:19;;;;;;;12.50;10.60;;;12.90;99.90;;;;;;5053788;28;20438;-60
2023/09/16 03:17:45;;;;;;;12.30;9.73;;;12.90;99.90;;;;;;5053634;28;20477;-59
2023/09/16 03:20:12;;;;;;;12.10;9.77;;;12.90;99.90;;;;;;5053566;28;20961;-59
2023/09/16 03:22:39;;;;;;;12.63;10.10;;;12.90;99.90;;;;;;5053400;28;21002;-61
2023/09/16 03:25:08;;;;;;;11.63;9.80;;;12.90;99.90;;;;;;5053651;28;20452;-59
2023/09/16 03:27:36;;;;;;;12.77;10.47;;;12.90;99.90;;;;;;5053869;28;20485;-59
2023/09/16 03:30:03;;;;;;;11.43;10.23;;;12.80;99.90;;;;;;5053744;28;20596;-58
2023/09/16 03:32:30;;;;;;;10.67;9.63;;;12.80;99.90;;;;;;5053460;28;20470;-60
2023/09/16 03:34:57;;;;;;;11.33;9.90;;;12.80;99.90;;;;;;5053589;28;20446;-59
2023/09/16 03:37:23;;;;;;;13.93;10.60;;;12.80;99.90;;;;;;5053377;28;20447;-58
2023/09/16 03:39:50;;;;;;;15.60;10.80;;;12.80;99.90;;;;;;5053190;28;20438;-59
2023/09/16 03:42:18;;;;;;;11.93;10.17;;;12.80;99.90;;;;;;5052969;28;20461;-59
2023/09/16 03:44:45;;;;;;;11.20;9.70;;;12.80;99.90;;;;;;5053009;28;20505;-59
2023/09/16 03:47:12;;;;;;;12.10;9.30;;;12.80;99.90;;;;;;5053288;28;20477;-59
2023/09/16 03:49:38;;;;;;;12.57;10.43;;;12.80;99.90;;;;;;5053094;28;20442;-59
2023/09/16 03:52:06;;;;;;;11.70;10.23;;;12.80;99.90;;;;;;5052984;28;20629;-59
2023/09/16 03:54:33;;;;;;;10.87;9.77;;;12.80;99.90;;;;;;5052856;28;20454;-59
2023/09/16 03:57:00;;;;;;;12.03;9.93;;;12.80;99.90;;;;;;5053209;28;20525;-59
2023/09/16 03:59:28;;;;;;;14.17;10.07;;;12.80;99.90;;;;;;5053037;28;20503;-59
2023/09/16 04:01:55;;;;;;;11.23;10.13;;;12.80;99.90;;;;;;5052945;28;20481;-59
2023/09/16 04:04:21;;;;;;;12.03;9.50;;;12.70;99.90;;;;;;5052692;28;20799;-59
2023/09/16 04:06:48;;;;;;;12.27;9.47;;;12.70;99.90;;;;;;5052878;28;20445;-60
2023/09/16 04:12:13;;;;;;;13.40;10.40;;;12.70;99.90;;;;;;5090965;28;21135;-61
2023/09/16 04:14:39;;;;;;;12.33;11.03;;;12.70;99.90;;;;;;5090681;28;20452;-62
2023/09/16 04:17:06;;;;;;;12.50;10.60;;;12.70;99.90;;;;;;5090541;28;20449;-61
2023/09/16 04:19:33;;;;;;;12.57;11.33;;;12.70;99.90;;;;;;5090412;28;20440;-61
2023/09/16 04:22:00;;;;;;;13.00;11.40;;;12.70;99.90;;;;;;5090603;28;20549;-62
2023/09/16 04:24:27;;;;;;;11.80;9.50;;;12.60;99.90;;;;;;5090440;28;20504;-61
2023/09/16 04:26:54;;;;;;;12.40;11.10;;;12.60;99.90;;;;;;5090520;28;20445;-61
2023/09/16 04:29:22;;;;;;;10.57;9.47;;;12.60;99.90;;;;;;5090380;28;20441;-61
2023/09/16 04:31:48;;;;;;;12.83;11.13;;;12.60;99.90;;;;;;5090371;28;20481;-62
2023/09/16 04:34:15;;;;;;;13.90;10.63;;;12.60;99.90;;;;;;5090485;28;20441;-62
2023/09/16 04:36:42;;;;;;;12.23;10.90;;;12.60;99.90;;;;;;5090110;28;20437;-61
2023/09/16 04:39:09;;;;;;;14.07;11.37;;;12.60;99.90;;;;;;5090145;28;20465;-61
2023/09/16 04:41:36;;;;;;;11.37;9.20;;;12.50;99.90;;;;;;5090609;28;20468;-62
2023/09/16 04:44:03;;;;;;;11.43;10.23;;;12.60;99.90;;;;;;5091699;28;20441;-62
2023/09/16 04:46:31;;;;;;;15.50;11.63;;;12.60;99.90;;;;;;5092346;28;20441;-62
2023/09/16 04:48:58;;;;;;;12.67;9.93;;;12.60;99.90;;;;;;5092217;28;20452;-62
2023/09/16 04:51:25;;;;;;;12.60;10.10;;;12.50;99.90;;;;;;5094109;28;20489;-61
2023/09/16 04:53:54;;;;;;;11.30;10.07;;;12.60;99.90;;;;;;5092743;28;20441;-61
2023/09/16 04:56:21;;;;;;;17.00;11.17;;;12.60;99.90;;;;;;5093923;28;20448;-61
2023/09/16 04:58:49;;;;;;;13.00;10.80;;;12.60;99.90;;;;;;5091831;28;20440;-61
2023/09/16 05:01:16;;;;;;;12.83;10.87;;;12.60;99.90;;;;;;5090718;28;20969;-61
2023/09/16 05:03:44;;;;;;;12.50;11.20;;;12.60;99.90;;;;;;5090705;28;20446;-60
2023/09/16 05:06:11;;;;;;;13.83;11.77;;;12.60;99.90;;;;;;5091012;28;20449;-60
2023/09/16 05:08:38;;;;;;;12.00;10.80;;;12.60;99.90;;;;;;5089701;28;20445;-60
2023/09/16 05:11:04;;;;;;;11.50;10.30;;;12.60;99.90;;;;;;5089375;28;20492;-61
2023/09/16 05:13:31;;;;;;;13.00;10.13;;;12.70;99.90;;;;;;5089709;28;20446;-60
2023/09/16 05:15:58;;;;;;;11.60;10.20;;;12.70;99.90;;;;;;5089108;28;20451;-60
2023/09/16 05:18:25;;;;;;;13.07;9.87;;;12.70;99.90;;;;;;5089127;28;20441;-60
2023/09/16 05:20:53;;;;;;;11.60;10.30;;;12.70;99.90;;;;;;5089316;28;20432;-61
2023/09/16 05:23:23;;;;;;;14.43;10.83;;;12.80;99.90;;;;;;5077189;28;20480;-60
2023/09/16 05:25:50;;;;;;;12.60;10.53;;;12.80;99.90;;;;;;5075552;28;20503;-60
2023/09/16 05:28:17;;;;;;;13.33;9.30;;;12.90;99.90;;;;;;5075600;28;20456;-60
2023/09/16 05:30:45;;;;;;;11.73;10.00;;;12.90;99.90;;;;;;5075481;28;20501;-61
2023/09/16 05:33:12;;;;;;;10.73;9.73;;;13.00;99.90;;;;;;5076227;28;20442;-61
2023/09/16 05:35:39;;;;;;;14.50;12.70;;;13.00;99.90;;;;;;5075692;28;20548;-62
2023/09/16 05:38:07;;;;;;;14.20;11.17;;;13.10;99.90;;;;;;5076833;28;20795;-60
2023/09/16 05:40:37;;;;;;;11.20;9.80;;;13.20;99.90;;;;;;5075771;28;20811;-60
2023/09/16 05:43:04;;;;;;;11.20;10.10;;;13.20;99.90;;;;;;5076015;28;20465;-61
2023/09/16 05:45:31;;;;;;;13.57;10.70;;;13.30;99.90;;;;;;5076123;28;20446;-61
2023/09/16 05:48:01;;;;;;;11.73;10.57;;;13.40;99.90;;;;;;5076273;28;20520;-61
2023/09/16 05:50:28;;;;;;;14.27;12.27;;;13.50;99.90;;;;;;5076737;28;20841;-60
2023/09/16 05:52:55;;;;;;;11.80;9.47;;;13.50;99.90;;;;;;5076282;28;20467;-61
2023/09/16 05:55:23;;;;;;;11.47;10.27;;;13.60;99.90;;;;;;5076250;28;20437;-60
2023/09/16 05:57:50;;;;;;;12.60;11.30;;;13.70;99.90;;;;;;5077249;28;20457;-61
2023/09/16 06:00:17;;;;;;;12.20;10.17;;;13.80;99.90;;;;;;5076089;28;20452;-61
2023/09/16 06:02:44;;;;;;;10.67;9.57;;;13.90;99.90;;;;;;5077215;28;20474;-61
2023/09/16 06:05:11;;;;;;;11.60;9.90;;;14.00;99.90;;;;;;5077412;28;20447;-60
2023/09/16 06:07:41;;;;;;;11.17;9.13;;;14.00;99.90;;;;;;5079191;28;20449;-60
2023/09/16 06:10:08;;;;;;;11.27;9.03;;;14.10;99.90;;;;;;5076719;28;20460;-61
2023/09/16 06:12:36;;;;;;;9.93;8.60;;;14.30;99.90;;;;;;5076150;28;20511;-60
2023/09/16 06:15:03;;;;;;;9.10;8.30;;;14.40;99.90;;;;;;5074788;28;20448;-61
2023/09/16 06:17:30;;;;;;;11.00;9.90;;;14.60;99.90;;;;;;5074817;28;20457;-61
2023/09/16 06:19:57;;;;;;;10.50;9.50;;;14.70;99.90;;;;;;5074724;28;20450;-61
2023/09/16 06:22:25;;;;;;;10.60;8.83;;;14.80;99.90;;;;;;5074717;28;20550;-61
2023/09/16 06:24:52;;;;;;;9.80;8.80;;;15.00;99.90;;;;;;5075190;28;20436;-62
2023/09/16 06:27:19;;;;;;;11.13;8.00;;;15.10;99.90;;;;;;5074582;28;20451;-61
2023/09/16 06:29:48;;;;;;;9.20;7.90;;;15.30;99.90;;;;;;5074667;28;20442;-60
2023/09/16 06:32:15;;;;;;;9.50;8.60;;;15.50;99.90;;;;;;5074087;28;20993;-62
2023/09/16 06:34:42;;;;;;;9.60;8.60;;;15.70;99.90;;;;;;5073312;28;20448;-62
2023/09/16 06:37:09;;;;;;;9.60;8.60;;;15.80;99.90;;;;;;5074703;28;20441;-62
2023/09/16 06:39:36;;;;;;;9.10;7.73;;;16.00;99.90;;;;;;5074520;28;20502;-60
2023/09/16 06:42:04;;;;;;;8.83;7.93;;;16.20;99.90;;;;;;5074473;28;20472;-62
2023/09/16 06:44:31;;;;;;;8.20;7.40;;;16.30;99.90;;;;;;5074828;28;20454;-62
2023/09/16 06:46:59;;;;;;;10.67;9.57;;;16.50;99.90;;;;;;5074734;28;20436;-61
2023/09/16 06:49:26;;;;;;;8.30;7.50;;;16.60;99.90;;;;;;5074433;28;20440;-61
2023/09/16 06:51:53;;;;;;;8.90;7.10;;;16.80;99.90;;;;;;5074847;28;20485;-62
2023/09/16 06:54:20;;;;;;;8.40;7.60;;;16.90;99.90;;;;;;5075475;28;20965;-61
2023/09/16 06:56:47;;;;;;;7.90;7.20;;;17.10;99.90;;;;;;5074832;28;20442;-62
2023/09/16 06:59:14;;;;;;;11.23;6.97;;;17.20;99.90;;;;;;5074363;28;20454;-62
2023/09/16 07:01:41;;;;;;;7.40;6.70;;;17.40;99.90;;;;;;5074267;28;20458;-62
2023/09/16 07:04:09;;;;;;;7.80;6.40;;;17.40;99.90;;;;;;5074972;28;20963;-62
2023/09/16 07:06:36;;;;;;;7.50;6.80;;;17.50;99.90;;;;;;5075625;28;20440;-62
2023/09/16 07:09:02;;;;;;;6.67;6.07;;;17.50;99.90;;;;;;5077180;28;20537;-62
2023/09/16 07:11:29;;;;;;;10.00;7.07;;;17.60;99.90;;;;;;5080812;28;20490;-62
2023/09/16 07:13:56;;;;;;;7.43;6.47;;;17.80;99.90;;;;;;5079285;28;20442;-60
2023/09/16 07:16:34;;;;;;;6.57;5.97;;;17.90;99.90;;;;;;5078741;28;20438;-61
2023/09/16 07:19:01;;;;;;;7.73;6.47;;;18.00;99.90;;;;;;5078897;28;20457;-62
2023/09/16 07:21:31;;;;;;;7.80;7.10;;;18.10;99.90;;;;;;5076483;28;20489;-62
2023/09/16 07:24:00;;;;;;;8.30;6.90;;;18.30;99.90;;;;;;5075959;28;20443;-62
2023/09/16 07:26:27;;;;;;;6.93;6.33;;;18.30;99.90;;;;;;5077443;28;20557;-62
2023/09/16 07:28:54;;;;;;;8.00;6.97;;;18.50;99.90;;;;;;5078047;28;20866;-62
2023/09/16 07:31:21;;;;;;;8.93;7.00;;;18.60;99.90;;;;;;5077476;28;20488;-62
2023/09/16 07:33:48;;;;;;;9.63;8.03;;;18.70;99.90;;;;;;5078561;28;20443;-62
2023/09/16 07:36:15;;;;;;;7.60;6.43;;;18.80;99.90;;;;;;5081029;28;20451;-62
2023/09/16 07:38:43;;;;;;;8.07;6.40;;;18.90;99.90;;;;;;5080279;28;20861;-61
2023/09/16 07:41:10;;;;;;;9.33;7.13;;;18.90;99.90;;;;;;5080628;28;20458;-61
2023/09/16 07:43:37;;;;;;;7.50;6.20;;;18.90;99.90;;;;;;5081878;28;20440;-61
2023/09/16 07:46:04;;;;;;;8.47;6.53;;;18.90;99.90;;;;;;5082855;28;20447;-62
2023/09/16 07:48:32;;;;;;;7.93;6.20;;;18.90;99.90;;;;;;5076904;28;20454;-63
2023/09/16 07:50:59;;;;;;;9.37;6.83;;;18.90;99.90;;;;;;5074038;28;20444;-62
2023/09/16 07:53:25;;;;;;;8.67;7.30;;;18.90;99.90;;;;;;5073667;28;20466;-62
2023/09/16 07:55:54;;;;;;;10.03;6.30;;;19.00;99.90;;;;;;5073079;28;20810;-64
2023/09/16 07:58:20;;;;;;;7.10;6.40;;;19.00;99.90;;;;;;5073290;28;20440;-62
2023/09/16 08:00:47;;;;;;;8.67;6.53;;;19.10;99.90;;;;;;5073078;28;20469;-63
2023/09/16 08:03:14;;;;;;;7.07;6.10;;;19.10;99.90;;;;;;5073049;28;20459;-61
2023/09/16 08:05:41;;;;;;;6.50;5.90;;;19.10;99.90;;;;;;5072681;28;20447;-61
2023/09/16 08:08:07;;;;;;;6.80;6.10;;;19.20;99.90;;;;;;5073027;28;20442;-61
2023/09/16 08:10:34;;;;;;;9.80;5.80;;;19.30;99.90;;;;;;5073499;28;20470;-62
2023/09/16 08:13:02;;;;;;;6.50;5.40;;;19.40;99.90;;;;;;5073045;28;20507;-61
2023/09/16 08:15:29;;;;;;;8.17;6.03;;;19.50;99.90;;;;;;5073987;28;20800;-62
2023/09/16 08:17:56;;;;;;;7.10;5.97;;;19.40;99.90;;;;;;5073125;28;20463;-62
2023/09/16 08:20:24;;;;;;;9.70;6.00;;;19.40;99.90;;;;;;5072985;28;20441;-62
2023/09/16 08:22:51;;;;;;;6.53;5.83;;;19.40;99.80;;;;;;5072750;28;20468;-60
2023/09/16 08:25:18;;;;;;;6.30;5.60;;;19.40;99.60;;;;;;5073386;28;20798;-62
2023/09/16 08:27:44;;;;;;;8.37;5.93;;;19.40;99.60;;;;;;5073233;28;20827;-62
2023/09/16 08:30:13;;;;;;;6.50;5.33;;;19.50;99.60;;;;;;5073141;28;20445;-62
2023/09/16 08:32:40;;;;;;;5.70;5.10;;;19.60;99.40;;;;;;5072915;28;20853;-62
2023/09/16 08:35:08;;;;;;;5.67;4.90;;;19.60;99.10;;;;;;5072844;28;20937;-63
2023/09/16 08:37:35;;;;;;;5.57;5.07;;;19.80;98.80;;;;;;5073184;28;20437;-62
2023/09/16 08:40:02;;;;;;;5.43;4.93;;;19.80;98.30;;;;;;5073026;28;20445;-62
2023/09/16 08:42:36;;;;;;;4.97;4.47;;;19.90;98.00;;;;;;5072847;28;20447;-62
2023/09/16 08:45:05;;;;;;;6.30;5.10;;;20.00;97.60;;;;;;5072718;28;20918;-62
2023/09/16 08:47:37;;;;;;;5.40;4.70;;;20.10;97.30;;;;;;5072749;28;20813;-62
2023/09/16 08:50:06;;;;;;;6.50;4.83;;;20.20;97.00;;;;;;5072779;28;20851;-62
2023/09/16 08:52:38;;;;;;;8.43;5.23;;;20.30;96.70;;;;;;5072496;28;20484;-62
2023/09/16 08:55:08;;;;;;;5.80;4.93;;;20.40;96.20;;;;;;5072716;28;20793;-62
2023/09/16 08:57:35;;;;;;;3.87;3.53;;;20.50;95.70;;;;;;5074332;28;20444;-63
2023/09/16 09:00:03;;;;;;;4.33;3.93;;;20.60;95.00;;;;;;5076683;28;20443;-62
2023/09/16 09:02:30;;;;;;;4.17;3.77;;;20.60;94.30;;;;;;5076355;28;20459;-61
2023/09/16 09:04:59;;;;;;;4.60;4.20;;;20.80;93.60;;;;;;5076205;28;20452;-61
2023/09/16 09:07:26;;;;;;;4.73;4.00;;;20.80;92.70;;;;;;5076209;28;20544;-61
2023/09/16 09:09:53;;;;;;;6.93;4.90;;;20.90;92.10;;;;;;5075857;28;20955;-62
2023/09/16 09:12:20;;;;;;;4.50;4.10;;;20.90;91.40;;;;;;5076272;28;20493;-62
2023/09/16 09:14:48;;;;;;;5.23;4.60;;;21.00;90.90;;;;;;5076650;28;20446;-62
2023/09/16 09:17:15;;;;;;;4.23;3.87;;;21.10;90.30;;;;;;5076176;28;20532;-62
2023/09/16 09:19:44;;;;;;;5.23;4.40;;;21.10;89.80;;;;;;5075648;28;20471;-61
2023/09/16 09:22:12;;;;;;;5.87;4.10;;;21.20;89.40;;;;;;5075896;28;20464;-62
2023/09/16 09:24:39;;;;;;;5.50;4.93;;;21.30;89.10;;;;;;5075752;28;20437;-62
2023/09/16 09:27:06;;;;;;;4.97;4.40;;;21.40;88.10;;;;;;5075903;28;20446;-62
2023/09/16 09:29:33;;;;;;;4.03;3.60;;;21.40;87.30;;;;;;5076206;28;20449;-62
2023/09/16 09:32:00;;;;;;;4.20;3.90;;;21.50;86.60;;;;;;5075984;28;20481;-63
2023/09/16 09:34:29;;;;;;;8.10;4.73;;;21.60;85.90;;;;;;5076038;28;20538;-63
2023/09/16 09:36:56;;;;;;;4.77;4.23;;;21.70;85.00;;;;;;5075829;28;20434;-65
2023/09/16 09:39:24;;;;;;;6.50;4.80;;;21.80;83.90;;;;;;5075468;28;20446;-65
2023/09/16 09:41:52;;;;;;;6.17;4.50;;;21.90;82.30;;;;;;5075740;28;20465;-61
2023/09/16 09:44:20;;;;;;;4.53;4.10;;;22.00;81.60;;;;;;5075722;28;20443;-63
2023/09/16 09:46:47;;;;;;;4.93;4.17;;;22.00;81.00;;;;;;5076145;28;20460;-62
2023/09/16 09:49:15;;;;;;;5.00;4.50;;;22.20;80.50;;;;;;5075907;28;20443;-63
2023/09/16 09:51:47;;;;;;;5.17;4.67;;;22.20;79.80;;;;;;5075157;28;20472;-62
2023/09/16 09:54:13;;;;;;;5.07;4.57;;;22.30;79.70;;;;;;5076075;28;20428;-64
2023/09/16 09:56:42;;;;;;;12.30;5.87;;;22.30;79.50;;;;;;5075636;28;20439;-63
2023/09/16 09:59:09;;;;;;;6.70;4.60;;;22.40;79.30;;;;;;5075252;28;20456;-64
2023/09/16 10:01:35;;;;;;;8.40;5.20;;;22.40;78.90;;;;;;5075713;28;20459;-66
2023/09/16 10:04:03;;;;;;;5.60;4.97;;;22.40;78.80;;;;;;5076817;28;20443;-64
2023/09/16 10:06:30;;;;;;;6.20;5.60;;;22.40;78.40;;;;;;5075446;28;20936;-63
2023/09/16 10:08:57;;;;;;;5.53;4.97;;;22.40;78.50;;;;;;5076721;28;20443;-65
2023/09/16 10:11:27;;;;;;;6.80;4.90;;;22.30;78.60;;;;;;5076107;28;20507;-63
2023/09/16 10:13:56;;;;;;;5.70;5.10;;;22.40;78.60;;;;;;5078549;28;20482;-62
2023/09/16 10:16:23;;;;;;;6.33;5.50;;;22.50;78.50;;;;;;5082048;28;20461;-63
2023/09/16 10:18:50;;;;;;;6.37;4.83;;;22.60;78.70;;;;;;5079373;28;20454;-63
2023/09/16 10:21:18;;;;;;;9.20;5.33;;;22.70;78.60;;;;;;5080955;28;20459;-66
2023/09/16 10:23:47;;;;;;;7.10;5.10;;;22.80;78.70;;;;;;5082382;28;20530;-65
2023/09/16 10:26:14;;;;;;;5.83;4.83;;;22.90;78.50;;;;;;5081680;28;20453;-65
2023/09/16 10:28:46;;;;;;;4.87;4.40;;;23.00;78.20;;;;;;5077232;28;20445;-62
2023/09/16 10:31:16;;;;;;;5.50;5.00;;;23.00;77.20;;;;;;5074862;28;20474;-63
2023/09/16 10:33:44;;;;;;;5.60;4.70;;;23.00;76.70;;;;;;5074680;28;20523;-64
2023/09/16 10:36:13;;;;;;;6.50;4.43;;;23.20;76.50;;;;;;5074886;28;20453;-64
2023/09/16 10:38:40;;;;;;;5.60;4.13;;;23.30;76.10;;;;;;5074201;28;20440;-64
2023/09/16 10:41:10;;;;;;;7.77;4.47;;;23.40;75.30;;;;;;5074235;28;20827;-63
2023/09/16 10:43:37;;;;;;;5.00;4.50;;;23.50;73.90;;;;;;5074189;28;20933;-63
2023/09/16 10:46:04;;;;;;;5.03;3.87;;;23.60;73.30;;;;;;5074419;28;20435;-62
2023/09/16 10:48:32;;;;;;;5.00;3.90;;;23.70;72.10;;;;;;5074330;28;20443;-62
2023/09/16 10:51:06;;;;;;;4.90;4.30;;;23.70;70.90;;;;;;5074445;28;20447;-63
2023/09/16 10:53:36;;;;;;;6.80;4.60;;;23.70;70.40;;;;;;5073970;28;20473;-62
2023/09/16 10:56:11;;;;;;;8.70;4.30;;;23.80;70.10;;;;;;5074987;28;20435;-63
2023/09/16 10:58:43;;;;;;;6.70;4.60;;;23.80;69.40;;;;;;5074483;28;20423;-64
2023/09/16 11:01:16;;;;;;;5.93;4.40;;;23.90;68.90;;;;;;5073823;28;20485;-65
2023/09/16 11:03:52;;;;;;;5.33;4.10;;;23.90;68.00;;;;;;5073529;28;20428;-64
2023/09/16 11:06:19;;;;;;;5.03;4.17;;;23.90;67.80;;;;;;5074117;28;20427;-65
2023/09/16 11:08:45;;;;;;;5.63;3.70;;;23.90;67.40;;;;;;5074459;28;20439;-64
2023/09/16 11:11:13;;;;;;;5.47;3.80;;;24.00;67.10;;;;;;5073548;28;20479;-64
2023/09/16 11:13:40;;;;;;;6.20;4.27;;;24.10;66.90;;;;;;5074213;28;20479;-63
2023/09/16 11:16:11;;;;;;;8.63;4.90;;;24.10;66.30;;;;;;5074276;28;20531;-64
2023/09/16 11:18:42;;;;;;;5.33;4.27;;;24.20;66.00;;;;;;5073752;28;20420;-64
2023/09/16 11:21:15;;;;;;;4.93;3.97;;;24.20;65.50;;;;;;5073148;28;20466;-64
2023/09/16 11:23:44;;;;;;;5.90;4.83;;;24.20;65.20;;;;;;5073898;28;20431;-65
2023/09/16 11:26:17;;;;;;;11.33;4.83;;;24.20;65.20;;;;;;5073871;28;20444;-64
2023/09/16 11:28:44;;;;;;;4.70;4.20;;;24.20;65.10;;;;;;5073294;28;20424;-64
2023/09/16 11:31:11;;;;;;;5.53;5.03;;;24.30;65.00;;;;;;5074082;28;20463;-65
2023/09/16 11:33:38;;;;;;;5.50;5.00;;;24.40;64.80;;;;;;5073300;28;20911;-64
2023/09/16 11:36:12;;;;;;;5.10;3.83;;;24.40;64.50;;;;;;5073767;28;20451;-65
2023/09/16 11:38:40;;;;;;;5.53;4.17;;;24.40;64.20;;;;;;5073930;28;20424;-64
2023/09/16 11:41:10;;;;;;;7.50;5.60;;;24.40;64.00;;;;;;5073399;28;20463;-64
2023/09/16 11:43:37;;;;;;;4.57;4.17;;;24.40;63.70;;;;;;5073675;28;20432;-63
2023/09/16 11:46:04;;;;;;;5.47;4.70;;;24.30;63.30;;;;;;5074102;28;20768;-64
2023/09/16 11:48:47;;;;;;;6.00;4.23;;;24.30;63.50;;;;;;5074177;28;20440;-64
2023/09/16 11:51:16;;;;;;;6.03;4.10;;;24.30;63.80;;;;;;5073470;28;20463;-65
2023/09/16 11:53:42;;;;;;;5.53;4.23;;;24.40;63.70;;;;;;5073672;28;20485;-65
2023/09/16 11:56:09;;;;;;;5.97;5.10;;;24.40;63.10;;;;;;5073252;28;20443;-65
2023/09/16 11:58:36;;;;;;;5.10;4.50;;;24.40;62.70;;;;;;5073273;28;20440;-62
2023/09/16 12:01:03;;;;;;;5.40;4.23;;;24.50;62.50;;;;;;5073435;28;20440;-63
2023/09/16 12:03:31;;;;;;;5.50;4.00;;;24.50;62.10;;;;;;5073348;28;20442;-63
2023/09/16 12:05:58;;;;;;;5.13;4.00;;;24.60;62.00;;;;;;5073634;28;20439;-64
2023/09/16 12:08:26;;;;;;;3.73;3.43;;;24.70;61.70;;;;;;5073155;28;20836;-64
2023/09/16 12:10:54;;;;;;;7.37;4.07;;;24.70;61.10;;;;;;5072971;28;20451;-63
2023/09/16 12:13:31;;;;;;;4.60;3.80;;;24.80;60.60;;;;;;5074583;28;20483;-63
2023/09/16 12:15:58;;;;;;;4.93;3.87;;;25.00;60.30;;;;;;5074499;28;20442;-63
2023/09/16 12:18:25;;;;;;;4.40;4.00;;;25.10;60.00;;;;;;5073707;28;20447;-64
2023/09/16 12:20:53;;;;;;;4.70;4.30;;;25.10;59.50;;;;;;5073334;28;20457;-64
2023/09/16 12:23:20;;;;;;;3.83;3.47;;;25.10;58.40;;;;;;5073429;28;20451;-63
2023/09/16 12:25:48;;;;;;;4.33;3.60;;;25.10;58.10;;;;;;5073380;28;20439;-64
2023/09/16 12:28:20;;;;;;;4.20;3.53;;;25.10;58.70;;;;;;5073611;28;20436;-65
2023/09/16 12:30:49;;;;;;;4.00;3.70;;;25.20;58.30;;;;;;5073351;28;20420;-65
2023/09/16 12:33:16;;;;;;;4.63;3.73;;;25.30;58.20;;;;;;5076204;28;20505;-64
2023/09/16 12:35:43;;;;;;;3.53;3.10;;;25.30;57.70;;;;;;5077573;28;20439;-64
2023/09/16 12:38:10;;;;;;;5.77;3.57;;;25.40;56.90;;;;;;5077631;28;20451;-65
2023/09/16 12:40:37;;;;;;;3.53;3.20;;;25.40;56.40;;;;;;5077306;28;20439;-65
2023/09/16 12:43:07;;;;;;;4.47;3.60;;;25.40;56.20;;;;;;5077139;28;20456;-65
2023/09/16 12:45:36;;;;;;;3.67;3.30;;;25.40;56.40;;;;;;5077568;28;20443;-65